sensor_id;sensor_type;location;lat;lon;timestamp;P1;durP1;ratioP1;P2;durP2;ratioP2
68365;SDS011;55283;51.466;5.478;2022-08-14T00:00:12;2.60;;;2.30;;
68365;SDS011;55283;51.466;5.478;2022-08-14T00:02:41;2.75;;;2.30;;
68365;SDS011;55283;51.466;5.478;2022-08-14T00:05:07;2.30;;;2.10;;
68365;SDS011;55283;51.466;5.478;2022-08-14T00:07:34;2.50;;;2.30;;
68365;SDS011;55283;51.466;5.478;2022-08-14T00:10:00;2.60;;;2.40;;
68365;SDS011;55283;51.466;5.478;2022-08-14T00:12:31;2.58;;;2.35;;
68365;SDS011;55283;51.466;5.478;2022-08-14T00:14:58;2.53;;;2.30;;
68365;SDS011;55283;51.466;5.478;2022-08-14T00:17:24;2.77;;;2.30;;
68365;SDS011;55283;51.466;5.478;2022-08-14T00:19:50;3.17;;;2.40;;
68365;SDS011;55283;51.466;5.478;2022-08-14T00:22:18;3.80;;;2.55;;
68365;SDS011;55283;51.466;5.478;2022-08-14T00:24:44;3.03;;;2.60;;
68365;SDS011;55283;51.466;5.478;2022-08-14T00:27:09;2.40;;;2.20;;
68365;SDS011;55283;51.466;5.478;2022-08-14T00:29:35;2.40;;;2.20;;
68365;SDS011;55283;51.466;5.478;2022-08-14T00:32:01;2.50;;;2.30;;
68365;SDS011;55283;51.466;5.478;2022-08-14T00:34:26;2.65;;;2.35;;
68365;SDS011;55283;51.466;5.478;2022-08-14T00:36:52;2.63;;;2.43;;
68365;SDS011;55283;51.466;5.478;2022-08-14T00:39:17;2.70;;;2.50;;
68365;SDS011;55283;51.466;5.478;2022-08-14T00:41:45;2.88;;;2.40;;
68365;SDS011;55283;51.466;5.478;2022-08-14T00:44:12;2.60;;;2.38;;
68365;SDS011;55283;51.466;5.478;2022-08-14T00:46:40;3.67;;;2.30;;
68365;SDS011;55283;51.466;5.478;2022-08-14T00:49:05;2.63;;;2.43;;
68365;SDS011;55283;51.466;5.478;2022-08-14T00:51:32;2.57;;;2.37;;
68365;SDS011;55283;51.466;5.478;2022-08-14T00:53:58;3.03;;;2.30;;
68365;SDS011;55283;51.466;5.478;2022-08-14T00:56:24;2.53;;;2.33;;
68365;SDS011;55283;51.466;5.478;2022-08-14T00:58:50;2.90;;;2.33;;
68365;SDS011;55283;51.466;5.478;2022-08-14T01:01:16;2.80;;;2.60;;
68365;SDS011;55283;51.466;5.478;2022-08-14T01:03:43;2.60;;;2.35;;
68365;SDS011;55283;51.466;5.478;2022-08-14T01:06:12;2.40;;;2.20;;
68365;SDS011;55283;51.466;5.478;2022-08-14T01:08:42;2.80;;;2.28;;
68365;SDS011;55283;51.466;5.478;2022-08-14T01:11:09;2.55;;;2.35;;
68365;SDS011;55283;51.466;5.478;2022-08-14T01:13:38;2.93;;;2.33;;
68365;SDS011;55283;51.466;5.478;2022-08-14T01:16:07;4.18;;;2.47;;
68365;SDS011;55283;51.466;5.478;2022-08-14T01:18:36;2.50;;;2.30;;
68365;SDS011;55283;51.466;5.478;2022-08-14T01:21:30;3.15;;;2.40;;
68365;SDS011;55283;51.466;5.478;2022-08-14T01:24:04;3.07;;;2.40;;
68365;SDS011;55283;51.466;5.478;2022-08-14T01:26:34;2.55;;;2.35;;
68365;SDS011;55283;51.466;5.478;2022-08-14T01:29:00;3.20;;;2.60;;
68365;SDS011;55283;51.466;5.478;2022-08-14T01:31:32;2.77;;;2.50;;
68365;SDS011;55283;51.466;5.478;2022-08-14T01:34:03;2.55;;;2.28;;
68365;SDS011;55283;51.466;5.478;2022-08-14T01:36:32;2.63;;;2.33;;
68365;SDS011;55283;51.466;5.478;2022-08-14T01:39:04;2.57;;;2.37;;
68365;SDS011;55283;51.466;5.478;2022-08-14T01:41:31;2.50;;;2.30;;
68365;SDS011;55283;51.466;5.478;2022-08-14T01:43:58;2.60;;;2.40;;
68365;SDS011;55283;51.466;5.478;2022-08-14T01:46:26;3.55;;;2.58;;
68365;SDS011;55283;51.466;5.478;2022-08-14T01:48:54;2.75;;;2.50;;
68365;SDS011;55283;51.466;5.478;2022-08-14T01:51:21;3.45;;;2.45;;
68365;SDS011;55283;51.466;5.478;2022-08-14T01:53:53;2.67;;;2.47;;
68365;SDS011;55283;51.466;5.478;2022-08-14T01:56:22;3.08;;;2.80;;
68365;SDS011;55283;51.466;5.478;2022-08-14T01:58:59;2.80;;;2.60;;
68365;SDS011;55283;51.466;5.478;2022-08-14T02:01:30;2.40;;;2.20;;
68365;SDS011;55283;51.466;5.478;2022-08-14T02:03:55;2.85;;;2.65;;
68365;SDS011;55283;51.466;5.478;2022-08-14T02:06:23;2.50;;;2.30;;
68365;SDS011;55283;51.466;5.478;2022-08-14T02:08:51;2.73;;;2.50;;
68365;SDS011;55283;51.466;5.478;2022-08-14T02:11:21;2.97;;;2.65;;
68365;SDS011;55283;51.466;5.478;2022-08-14T02:14:03;2.60;;;2.40;;
68365;SDS011;55283;51.466;5.478;2022-08-14T02:16:31;3.03;;;2.60;;
68365;SDS011;55283;51.466;5.478;2022-08-14T02:19:07;3.10;;;2.83;;
68365;SDS011;55283;51.466;5.478;2022-08-14T02:21:36;2.88;;;2.65;;
68365;SDS011;55283;51.466;5.478;2022-08-14T02:24:03;2.80;;;2.60;;
68365;SDS011;55283;51.466;5.478;2022-08-14T02:26:33;2.70;;;2.40;;
68365;SDS011;55283;51.466;5.478;2022-08-14T02:29:05;2.90;;;2.65;;
68365;SDS011;55283;51.466;5.478;2022-08-14T02:31:33;2.85;;;2.63;;
68365;SDS011;55283;51.466;5.478;2022-08-14T02:34:05;2.87;;;2.60;;
68365;SDS011;55283;51.466;5.478;2022-08-14T02:36:34;2.60;;;2.40;;
68365;SDS011;55283;51.466;5.478;2022-08-14T02:39:01;2.88;;;2.65;;
68365;SDS011;55283;51.466;5.478;2022-08-14T02:41:29;2.63;;;2.42;;
68365;SDS011;55283;51.466;5.478;2022-08-14T02:44:02;2.70;;;2.50;;
68365;SDS011;55283;51.466;5.478;2022-08-14T02:46:28;2.83;;;2.50;;
68365;SDS011;55283;51.466;5.478;2022-08-14T02:48:57;2.65;;;2.45;;
68365;SDS011;55283;51.466;5.478;2022-08-14T02:51:24;2.70;;;2.50;;
68365;SDS011;55283;51.466;5.478;2022-08-14T02:53:50;2.60;;;2.40;;
68365;SDS011;55283;51.466;5.478;2022-08-14T02:56:18;2.80;;;2.60;;
68365;SDS011;55283;51.466;5.478;2022-08-14T02:58:44;3.00;;;2.70;;
68365;SDS011;55283;51.466;5.478;2022-08-14T03:01:12;2.70;;;2.50;;
68365;SDS011;55283;51.466;5.478;2022-08-14T03:03:39;3.00;;;2.80;;
68365;SDS011;55283;51.466;5.478;2022-08-14T03:06:06;2.70;;;2.50;;
68365;SDS011;55283;51.466;5.478;2022-08-14T03:08:32;2.40;;;2.20;;
68365;SDS011;55283;51.466;5.478;2022-08-14T03:10:59;2.70;;;2.50;;
68365;SDS011;55283;51.466;5.478;2022-08-14T03:13:27;2.90;;;2.65;;
68365;SDS011;55283;51.466;5.478;2022-08-14T03:15:53;2.80;;;2.60;;
68365;SDS011;55283;51.466;5.478;2022-08-14T03:18:19;2.90;;;2.70;;
68365;SDS011;55283;51.466;5.478;2022-08-14T03:20:47;2.70;;;2.33;;
68365;SDS011;55283;51.466;5.478;2022-08-14T03:23:14;2.72;;;2.53;;
68365;SDS011;55283;51.466;5.478;2022-08-14T03:25:40;2.73;;;2.53;;
68365;SDS011;55283;51.466;5.478;2022-08-14T03:28:06;2.80;;;2.60;;
68365;SDS011;55283;51.466;5.478;2022-08-14T03:30:36;2.63;;;2.43;;
68365;SDS011;55283;51.466;5.478;2022-08-14T03:33:04;3.00;;;2.70;;
68365;SDS011;55283;51.466;5.478;2022-08-14T03:35:30;3.00;;;2.50;;
68365;SDS011;55283;51.466;5.478;2022-08-14T03:38:03;3.07;;;2.77;;
68365;SDS011;55283;51.466;5.478;2022-08-14T03:40:33;3.33;;;2.60;;
68365;SDS011;55283;51.466;5.478;2022-08-14T03:42:58;3.00;;;2.77;;
68365;SDS011;55283;51.466;5.478;2022-08-14T03:45:23;3.30;;;2.60;;
68365;SDS011;55283;51.466;5.478;2022-08-14T03:47:49;2.90;;;2.60;;
68365;SDS011;55283;51.466;5.478;2022-08-14T03:50:15;3.30;;;2.80;;
68365;SDS011;55283;51.466;5.478;2022-08-14T03:52:40;3.05;;;2.85;;
68365;SDS011;55283;51.466;5.478;2022-08-14T03:55:12;3.37;;;2.77;;
68365;SDS011;55283;51.466;5.478;2022-08-14T03:57:38;2.80;;;2.60;;
68365;SDS011;55283;51.466;5.478;2022-08-14T04:00:08;3.17;;;2.80;;
68365;SDS011;55283;51.466;5.478;2022-08-14T04:02:37;2.80;;;2.60;;
68365;SDS011;55283;51.466;5.478;2022-08-14T04:05:04;2.83;;;2.55;;
68365;SDS011;55283;51.466;5.478;2022-08-14T04:07:34;2.80;;;2.60;;
68365;SDS011;55283;51.466;5.478;2022-08-14T04:10:03;3.33;;;2.47;;
68365;SDS011;55283;51.466;5.478;2022-08-14T04:12:32;3.00;;;2.60;;
68365;SDS011;55283;51.466;5.478;2022-08-14T04:14:58;2.80;;;2.60;;
68365;SDS011;55283;51.466;5.478;2022-08-14T04:17:23;2.78;;;2.58;;
68365;SDS011;55283;51.466;5.478;2022-08-14T04:19:50;2.90;;;2.60;;
68365;SDS011;55283;51.466;5.478;2022-08-14T04:22:16;2.77;;;2.57;;
68365;SDS011;55283;51.466;5.478;2022-08-14T04:24:41;2.90;;;2.70;;
68365;SDS011;55283;51.466;5.478;2022-08-14T04:27:10;3.77;;;2.53;;
68365;SDS011;55283;51.466;5.478;2022-08-14T04:29:40;3.00;;;2.70;;
68365;SDS011;55283;51.466;5.478;2022-08-14T04:32:07;2.88;;;2.60;;
68365;SDS011;55283;51.466;5.478;2022-08-14T04:34:35;3.47;;;2.60;;
68365;SDS011;55283;51.466;5.478;2022-08-14T04:37:04;3.10;;;2.80;;
68365;SDS011;55283;51.466;5.478;2022-08-14T04:39:48;3.05;;;2.85;;
68365;SDS011;55283;51.466;5.478;2022-08-14T04:42:32;3.20;;;2.80;;
68365;SDS011;55283;51.466;5.478;2022-08-14T04:45:17;2.85;;;2.65;;
68365;SDS011;55283;51.466;5.478;2022-08-14T04:47:44;3.20;;;2.90;;
68365;SDS011;55283;51.466;5.478;2022-08-14T04:50:27;3.40;;;2.78;;
68365;SDS011;55283;51.466;5.478;2022-08-14T04:52:53;3.30;;;3.00;;
68365;SDS011;55283;51.466;5.478;2022-08-14T04:55:18;2.90;;;2.67;;
68365;SDS011;55283;51.466;5.478;2022-08-14T04:57:44;3.07;;;2.87;;
68365;SDS011;55283;51.466;5.478;2022-08-14T05:00:11;2.90;;;2.70;;
68365;SDS011;55283;51.466;5.478;2022-08-14T05:02:36;2.70;;;2.50;;
68365;SDS011;55283;51.466;5.478;2022-08-14T05:05:02;2.90;;;2.70;;
68365;SDS011;55283;51.466;5.478;2022-08-14T05:07:27;2.93;;;2.63;;
68365;SDS011;55283;51.466;5.478;2022-08-14T05:09:53;2.93;;;2.63;;
68365;SDS011;55283;51.466;5.478;2022-08-14T05:12:18;3.37;;;2.80;;
68365;SDS011;55283;51.466;5.478;2022-08-14T05:14:43;3.17;;;2.87;;
68365;SDS011;55283;51.466;5.478;2022-08-14T05:17:11;3.10;;;2.90;;
68365;SDS011;55283;51.466;5.478;2022-08-14T05:19:38;3.35;;;2.72;;
68365;SDS011;55283;51.466;5.478;2022-08-14T05:22:07;3.28;;;2.97;;
68365;SDS011;55283;51.466;5.478;2022-08-14T05:24:33;3.00;;;2.70;;
68365;SDS011;55283;51.466;5.478;2022-08-14T05:27:01;3.60;;;3.00;;
68365;SDS011;55283;51.466;5.478;2022-08-14T05:29:28;3.00;;;2.80;;
68365;SDS011;55283;51.466;5.478;2022-08-14T05:31:55;3.00;;;2.63;;
68365;SDS011;55283;51.466;5.478;2022-08-14T05:34:21;3.08;;;2.72;;
68365;SDS011;55283;51.466;5.478;2022-08-14T05:36:47;5.15;;;2.63;;
68365;SDS011;55283;51.466;5.478;2022-08-14T05:39:13;3.10;;;2.80;;
68365;SDS011;55283;51.466;5.478;2022-08-14T05:41:38;4.10;;;2.90;;
68365;SDS011;55283;51.466;5.478;2022-08-14T05:44:03;4.13;;;3.37;;
68365;SDS011;55283;51.466;5.478;2022-08-14T05:46:34;5.25;;;3.13;;
68365;SDS011;55283;51.466;5.478;2022-08-14T05:48:59;3.28;;;2.90;;
68365;SDS011;55283;51.466;5.478;2022-08-14T05:51:25;5.13;;;3.50;;
68365;SDS011;55283;51.466;5.478;2022-08-14T05:53:51;9.02;;;3.45;;
68365;SDS011;55283;51.466;5.478;2022-08-14T05:56:17;3.53;;;3.23;;
68365;SDS011;55283;51.466;5.478;2022-08-14T05:58:43;3.50;;;3.13;;
68365;SDS011;55283;51.466;5.478;2022-08-14T06:01:09;4.30;;;3.30;;
68365;SDS011;55283;51.466;5.478;2022-08-14T06:03:38;3.47;;;3.10;;
68365;SDS011;55283;51.466;5.478;2022-08-14T06:06:03;4.90;;;3.00;;
68365;SDS011;55283;51.466;5.478;2022-08-14T06:08:29;4.63;;;3.40;;
68365;SDS011;55283;51.466;5.478;2022-08-14T06:10:57;3.53;;;3.10;;
68365;SDS011;55283;51.466;5.478;2022-08-14T06:13:27;4.80;;;3.20;;
68365;SDS011;55283;51.466;5.478;2022-08-14T06:15:56;4.72;;;3.15;;
68365;SDS011;55283;51.466;5.478;2022-08-14T06:18:30;4.00;;;3.25;;
68365;SDS011;55283;51.466;5.478;2022-08-14T06:20:55;4.37;;;2.93;;
68365;SDS011;55283;51.466;5.478;2022-08-14T06:23:21;3.72;;;2.80;;
68365;SDS011;55283;51.466;5.478;2022-08-14T06:25:46;3.47;;;3.10;;
68365;SDS011;55283;51.466;5.478;2022-08-14T06:28:17;5.07;;;3.30;;
68365;SDS011;55283;51.466;5.478;2022-08-14T06:30:44;3.90;;;2.80;;
68365;SDS011;55283;51.466;5.478;2022-08-14T06:33:10;6.85;;;3.30;;
68365;SDS011;55283;51.466;5.478;2022-08-14T06:35:38;4.33;;;3.20;;
68365;SDS011;55283;51.466;5.478;2022-08-14T06:38:05;3.65;;;3.25;;
68365;SDS011;55283;51.466;5.478;2022-08-14T06:40:34;5.70;;;3.10;;
68365;SDS011;55283;51.466;5.478;2022-08-14T06:43:02;6.97;;;3.17;;
68365;SDS011;55283;51.466;5.478;2022-08-14T06:45:30;4.75;;;3.60;;
68365;SDS011;55283;51.466;5.478;2022-08-14T06:47:57;6.50;;;3.60;;
68365;SDS011;55283;51.466;5.478;2022-08-14T06:50:23;7.95;;;3.03;;
68365;SDS011;55283;51.466;5.478;2022-08-14T06:52:49;5.97;;;3.17;;
68365;SDS011;55283;51.466;5.478;2022-08-14T06:55:15;3.83;;;3.37;;
68365;SDS011;55283;51.466;5.478;2022-08-14T06:57:45;3.95;;;3.40;;
68365;SDS011;55283;51.466;5.478;2022-08-14T07:00:16;4.35;;;3.42;;
68365;SDS011;55283;51.466;5.478;2022-08-14T07:02:41;5.83;;;3.90;;
68365;SDS011;55283;51.466;5.478;2022-08-14T07:05:26;8.05;;;4.10;;
68365;SDS011;55283;51.466;5.478;2022-08-14T07:10:48;8.17;;;4.80;;
68365;SDS011;55283;51.466;5.478;2022-08-14T07:13:17;7.05;;;4.50;;
68365;SDS011;55283;51.466;5.478;2022-08-14T07:15:45;5.63;;;4.90;;
68365;SDS011;55283;51.466;5.478;2022-08-14T07:18:14;6.47;;;4.93;;
68365;SDS011;55283;51.466;5.478;2022-08-14T07:20:43;8.30;;;5.30;;
68365;SDS011;55283;51.466;5.478;2022-08-14T07:23:11;10.80;;;5.22;;
68365;SDS011;55283;51.466;5.478;2022-08-14T07:25:38;7.10;;;5.10;;
68365;SDS011;55283;51.466;5.478;2022-08-14T07:28:17;5.88;;;5.38;;
68365;SDS011;55283;51.466;5.478;2022-08-14T07:30:44;7.63;;;5.50;;
68365;SDS011;55283;51.466;5.478;2022-08-14T07:33:14;6.03;;;5.17;;
68365;SDS011;55283;51.466;5.478;2022-08-14T07:35:43;7.68;;;4.97;;
68365;SDS011;55283;51.466;5.478;2022-08-14T07:38:15;8.55;;;4.70;;
68365;SDS011;55283;51.466;5.478;2022-08-14T07:40:46;5.30;;;4.80;;
68365;SDS011;55283;51.466;5.478;2022-08-14T07:43:13;6.53;;;5.32;;
68365;SDS011;55283;51.466;5.478;2022-08-14T07:45:39;6.80;;;4.90;;
68365;SDS011;55283;51.466;5.478;2022-08-14T07:48:05;5.35;;;4.85;;
68365;SDS011;55283;51.466;5.478;2022-08-14T07:50:31;7.03;;;5.07;;
68365;SDS011;55283;51.466;5.478;2022-08-14T07:52:57;8.50;;;5.03;;
68365;SDS011;55283;51.466;5.478;2022-08-14T07:55:27;5.43;;;4.70;;
68365;SDS011;55283;51.466;5.478;2022-08-14T07:57:52;6.22;;;4.80;;
68365;SDS011;55283;51.466;5.478;2022-08-14T08:00:21;5.80;;;4.70;;
68365;SDS011;55283;51.466;5.478;2022-08-14T08:02:49;5.97;;;5.03;;
68365;SDS011;55283;51.466;5.478;2022-08-14T08:05:16;5.53;;;5.03;;
68365;SDS011;55283;51.466;5.478;2022-08-14T08:07:51;5.47;;;4.80;;
68365;SDS011;55283;51.466;5.478;2022-08-14T08:10:19;7.30;;;5.13;;
68365;SDS011;55283;51.466;5.478;2022-08-14T08:18:30;6.67;;;4.80;;
68365;SDS011;55283;51.466;5.478;2022-08-14T08:20:56;6.20;;;4.78;;
68365;SDS011;55283;51.466;5.478;2022-08-14T08:23:23;8.73;;;7.63;;
68365;SDS011;55283;51.466;5.478;2022-08-14T08:25:50;6.47;;;4.93;;
68365;SDS011;55283;51.466;5.478;2022-08-14T08:28:24;8.32;;;4.85;;
68365;SDS011;55283;51.466;5.478;2022-08-14T08:33:19;7.87;;;4.87;;
68365;SDS011;55283;51.466;5.478;2022-08-14T08:35:45;5.80;;;5.13;;
68365;SDS011;55283;51.466;5.478;2022-08-14T08:38:13;6.30;;;4.80;;
68365;SDS011;55283;51.466;5.478;2022-08-14T08:40:42;6.47;;;4.80;;
68365;SDS011;55283;51.466;5.478;2022-08-14T08:43:21;5.63;;;4.80;;
68365;SDS011;55283;51.466;5.478;2022-08-14T08:45:53;6.70;;;4.75;;
68365;SDS011;55283;51.466;5.478;2022-08-14T08:48:24;7.57;;;4.85;;
68365;SDS011;55283;51.466;5.478;2022-08-14T08:51:07;6.63;;;4.50;;
68365;SDS011;55283;51.466;5.478;2022-08-14T08:53:34;6.07;;;4.90;;
68365;SDS011;55283;51.466;5.478;2022-08-14T08:56:00;6.18;;;5.10;;
68365;SDS011;55283;51.466;5.478;2022-08-14T08:58:27;6.47;;;4.70;;
68365;SDS011;55283;51.466;5.478;2022-08-14T09:00:53;8.48;;;4.70;;
68365;SDS011;55283;51.466;5.478;2022-08-14T09:03:22;5.32;;;4.30;;
68365;SDS011;55283;51.466;5.478;2022-08-14T09:06:03;5.60;;;5.10;;
68365;SDS011;55283;51.466;5.478;2022-08-14T09:08:33;5.60;;;5.10;;
68365;SDS011;55283;51.466;5.478;2022-08-14T09:11:03;5.25;;;4.72;;
68365;SDS011;55283;51.466;5.478;2022-08-14T09:13:36;6.10;;;4.70;;
68365;SDS011;55283;51.466;5.478;2022-08-14T09:16:02;4.80;;;4.40;;
68365;SDS011;55283;51.466;5.478;2022-08-14T09:18:28;6.60;;;4.67;;
68365;SDS011;55283;51.466;5.478;2022-08-14T09:20:58;7.85;;;5.07;;
68365;SDS011;55283;51.466;5.478;2022-08-14T09:23:23;8.63;;;4.90;;
68365;SDS011;55283;51.466;5.478;2022-08-14T09:25:50;7.10;;;4.87;;
68365;SDS011;55283;51.466;5.478;2022-08-14T09:28:17;5.97;;;5.03;;
68365;SDS011;55283;51.466;5.478;2022-08-14T09:30:47;7.20;;;5.10;;
68365;SDS011;55283;51.466;5.478;2022-08-14T09:45:00;6.00;;;5.00;;
68365;SDS011;55283;51.466;5.478;2022-08-14T09:47:44;6.97;;;4.80;;
68365;SDS011;55283;51.466;5.478;2022-08-14T09:50:30;5.53;;;5.03;;
68365;SDS011;55283;51.466;5.478;2022-08-14T09:53:10;6.35;;;4.72;;
68365;SDS011;55283;51.466;5.478;2022-08-14T09:55:36;5.45;;;4.95;;
68365;SDS011;55283;51.466;5.478;2022-08-14T10:00:46;5.97;;;4.80;;
68365;SDS011;55283;51.466;5.478;2022-08-14T10:03:27;5.10;;;4.70;;
68365;SDS011;55283;51.466;5.478;2022-08-14T10:06:08;6.47;;;4.50;;
68365;SDS011;55283;51.466;5.478;2022-08-14T10:13:42;5.90;;;4.47;;
68365;SDS011;55283;51.466;5.478;2022-08-14T10:16:10;6.35;;;4.57;;
68365;SDS011;55283;51.466;5.478;2022-08-14T10:18:42;6.32;;;4.70;;
68365;SDS011;55283;51.466;5.478;2022-08-14T10:21:08;6.03;;;4.67;;
68365;SDS011;55283;51.466;5.478;2022-08-14T10:23:41;5.32;;;4.47;;
68365;SDS011;55283;51.466;5.478;2022-08-14T10:26:08;9.15;;;4.90;;
68365;SDS011;55283;51.466;5.478;2022-08-14T10:28:41;5.38;;;4.88;;
68365;SDS011;55283;51.466;5.478;2022-08-14T10:31:26;5.40;;;4.80;;
68365;SDS011;55283;51.466;5.478;2022-08-14T10:34:11;5.15;;;4.75;;
68365;SDS011;55283;51.466;5.478;2022-08-14T10:36:43;5.35;;;4.50;;
68365;SDS011;55283;51.466;5.478;2022-08-14T10:39:16;4.63;;;4.13;;
68365;SDS011;55283;51.466;5.478;2022-08-14T10:41:46;5.30;;;4.80;;
68365;SDS011;55283;51.466;5.478;2022-08-14T10:44:30;6.43;;;4.60;;
68365;SDS011;55283;51.466;5.478;2022-08-14T10:47:03;5.43;;;4.77;;
68365;SDS011;55283;51.466;5.478;2022-08-14T10:49:35;14.85;;;4.63;;
68365;SDS011;55283;51.466;5.478;2022-08-14T10:54:33;5.93;;;4.30;;
68365;SDS011;55283;51.466;5.478;2022-08-14T11:02:32;5.47;;;4.30;;
68365;SDS011;55283;51.466;5.478;2022-08-14T11:05:10;5.33;;;4.20;;
68365;SDS011;55283;51.466;5.478;2022-08-14T11:07:39;4.72;;;3.85;;
68365;SDS011;55283;51.466;5.478;2022-08-14T11:12:38;4.97;;;3.97;;
68365;SDS011;55283;51.466;5.478;2022-08-14T11:15:04;4.40;;;4.00;;
68365;SDS011;55283;51.466;5.478;2022-08-14T11:17:32;4.38;;;3.97;;
68365;SDS011;55283;51.466;5.478;2022-08-14T11:20:02;5.13;;;3.72;;
68365;SDS011;55283;51.466;5.478;2022-08-14T11:22:32;4.40;;;4.00;;
68365;SDS011;55283;51.466;5.478;2022-08-14T11:25:03;4.38;;;3.97;;
68365;SDS011;55283;51.466;5.478;2022-08-14T11:27:31;4.55;;;4.15;;
68365;SDS011;55283;51.466;5.478;2022-08-14T11:30:02;4.60;;;3.90;;
68365;SDS011;55283;51.466;5.478;2022-08-14T11:32:31;4.43;;;3.80;;
68365;SDS011;55283;51.466;5.478;2022-08-14T11:34:57;4.22;;;3.88;;
68365;SDS011;55283;51.466;5.478;2022-08-14T11:37:24;4.63;;;4.20;;
68365;SDS011;55283;51.466;5.478;2022-08-14T11:39:49;4.15;;;3.75;;
68365;SDS011;55283;51.466;5.478;2022-08-14T11:42:19;3.90;;;3.60;;
68365;SDS011;55283;51.466;5.478;2022-08-14T11:44:50;4.00;;;3.60;;
68365;SDS011;55283;51.466;5.478;2022-08-14T11:47:17;5.15;;;3.92;;
68365;SDS011;55283;51.466;5.478;2022-08-14T11:49:46;5.00;;;3.60;;
68365;SDS011;55283;51.466;5.478;2022-08-14T11:52:13;5.55;;;3.70;;
68365;SDS011;55283;51.466;5.478;2022-08-14T11:54:43;4.57;;;3.70;;
68365;SDS011;55283;51.466;5.478;2022-08-14T11:57:20;4.93;;;3.63;;
68365;SDS011;55283;51.466;5.478;2022-08-14T12:00:01;4.20;;;3.80;;
68365;SDS011;55283;51.466;5.478;2022-08-14T12:02:29;3.80;;;3.50;;
68365;SDS011;55283;51.466;5.478;2022-08-14T12:04:55;3.83;;;3.53;;
68365;SDS011;55283;51.466;5.478;2022-08-14T12:07:20;3.77;;;3.47;;
68365;SDS011;55283;51.466;5.478;2022-08-14T12:09:51;5.30;;;3.25;;
68365;SDS011;55283;51.466;5.478;2022-08-14T12:12:20;4.07;;;3.60;;
68365;SDS011;55283;51.466;5.478;2022-08-14T12:14:59;3.72;;;3.25;;
68365;SDS011;55283;51.466;5.478;2022-08-14T12:17:28;4.75;;;3.70;;
68365;SDS011;55283;51.466;5.478;2022-08-14T12:20:01;3.58;;;3.28;;
68365;SDS011;55283;51.466;5.478;2022-08-14T12:24:58;3.67;;;3.28;;
68365;SDS011;55283;51.466;5.478;2022-08-14T12:27:37;3.28;;;2.97;;
68365;SDS011;55283;51.466;5.478;2022-08-14T12:30:09;4.07;;;3.30;;
68365;SDS011;55283;51.466;5.478;2022-08-14T12:32:43;3.80;;;3.50;;
68365;SDS011;55283;51.466;5.478;2022-08-14T12:35:12;3.47;;;3.17;;
68365;SDS011;55283;51.466;5.478;2022-08-14T12:37:45;3.50;;;3.20;;
68365;SDS011;55283;51.466;5.478;2022-08-14T12:40:12;3.83;;;3.42;;
68365;SDS011;55283;51.466;5.478;2022-08-14T12:42:39;3.70;;;3.40;;
68365;SDS011;55283;51.466;5.478;2022-08-14T12:45:05;3.42;;;3.20;;
68365;SDS011;55283;51.466;5.478;2022-08-14T12:47:32;3.67;;;3.20;;
68365;SDS011;55283;51.466;5.478;2022-08-14T12:49:57;4.22;;;3.40;;
68365;SDS011;55283;51.466;5.478;2022-08-14T12:52:31;3.60;;;3.30;;
68365;SDS011;55283;51.466;5.478;2022-08-14T12:55:02;3.60;;;3.30;;
68365;SDS011;55283;51.466;5.478;2022-08-14T12:57:33;3.80;;;3.50;;
68365;SDS011;55283;51.466;5.478;2022-08-14T13:00:05;3.63;;;3.30;;
68365;SDS011;55283;51.466;5.478;2022-08-14T13:02:35;3.50;;;3.20;;
68365;SDS011;55283;51.466;5.478;2022-08-14T13:05:02;3.60;;;3.30;;
68365;SDS011;55283;51.466;5.478;2022-08-14T13:07:28;3.50;;;3.20;;
68365;SDS011;55283;51.466;5.478;2022-08-14T13:09:54;4.97;;;3.10;;
68365;SDS011;55283;51.466;5.478;2022-08-14T13:12:20;3.70;;;3.20;;
68365;SDS011;55283;51.466;5.478;2022-08-14T13:14:51;3.30;;;3.00;;
68365;SDS011;55283;51.466;5.478;2022-08-14T13:17:24;3.42;;;3.13;;
68365;SDS011;55283;51.466;5.478;2022-08-14T13:19:54;3.30;;;3.00;;
68365;SDS011;55283;51.466;5.478;2022-08-14T13:22:21;3.60;;;3.23;;
68365;SDS011;55283;51.466;5.478;2022-08-14T13:24:52;3.30;;;3.00;;
68365;SDS011;55283;51.466;5.478;2022-08-14T13:27:21;3.25;;;2.95;;
68365;SDS011;55283;51.466;5.478;2022-08-14T13:29:49;3.67;;;3.38;;
68365;SDS011;55283;51.466;5.478;2022-08-14T13:32:18;3.30;;;3.00;;
68365;SDS011;55283;51.466;5.478;2022-08-14T13:34:47;3.58;;;3.28;;
68365;SDS011;55283;51.466;5.478;2022-08-14T13:37:14;3.47;;;3.10;;
68365;SDS011;55283;51.466;5.478;2022-08-14T13:39:45;3.70;;;3.40;;
68365;SDS011;55283;51.466;5.478;2022-08-14T13:42:17;3.08;;;2.88;;
68365;SDS011;55283;51.466;5.478;2022-08-14T13:44:45;3.20;;;2.90;;
68365;SDS011;55283;51.466;5.478;2022-08-14T13:47:14;3.20;;;2.90;;
68365;SDS011;55283;51.466;5.478;2022-08-14T13:49:40;3.30;;;3.00;;
68365;SDS011;55283;51.466;5.478;2022-08-14T13:52:06;3.10;;;2.90;;
68365;SDS011;55283;51.466;5.478;2022-08-14T13:54:35;3.07;;;2.87;;
68365;SDS011;55283;51.466;5.478;2022-08-14T13:57:03;3.20;;;2.90;;
68365;SDS011;55283;51.466;5.478;2022-08-14T13:59:34;3.40;;;3.10;;
68365;SDS011;55283;51.466;5.478;2022-08-14T14:02:03;3.50;;;3.20;;
68365;SDS011;55283;51.466;5.478;2022-08-14T14:04:32;3.53;;;3.22;;
68365;SDS011;55283;51.466;5.478;2022-08-14T14:07:09;3.60;;;3.30;;
68365;SDS011;55283;51.466;5.478;2022-08-14T14:09:37;4.20;;;3.00;;
68365;SDS011;55283;51.466;5.478;2022-08-14T14:12:08;4.10;;;3.05;;
68365;SDS011;55283;51.466;5.478;2022-08-14T14:14:34;3.47;;;3.05;;
68365;SDS011;55283;51.466;5.478;2022-08-14T14:17:02;3.30;;;3.00;;
68365;SDS011;55283;51.466;5.478;2022-08-14T14:19:28;3.33;;;3.03;;
68365;SDS011;55283;51.466;5.478;2022-08-14T14:21:59;3.20;;;2.90;;
68365;SDS011;55283;51.466;5.478;2022-08-14T14:24:27;3.40;;;3.10;;
68365;SDS011;55283;51.466;5.478;2022-08-14T14:26:54;3.17;;;2.90;;
68365;SDS011;55283;51.466;5.478;2022-08-14T14:29:24;5.80;;;3.00;;
68365;SDS011;55283;51.466;5.478;2022-08-14T14:31:56;4.00;;;3.30;;
68365;SDS011;55283;51.466;5.478;2022-08-14T14:34:23;3.13;;;2.90;;
68365;SDS011;55283;51.466;5.478;2022-08-14T14:36:53;3.22;;;2.92;;
68365;SDS011;55283;51.466;5.478;2022-08-14T14:39:23;3.78;;;3.38;;
68365;SDS011;55283;51.466;5.478;2022-08-14T14:41:51;3.47;;;3.10;;
68365;SDS011;55283;51.466;5.478;2022-08-14T14:44:21;4.23;;;3.80;;
68365;SDS011;55283;51.466;5.478;2022-08-14T14:46:48;3.70;;;3.28;;
68365;SDS011;55283;51.466;5.478;2022-08-14T14:49:15;5.50;;;3.42;;
68365;SDS011;55283;51.466;5.478;2022-08-14T14:51:43;4.27;;;3.40;;
68365;SDS011;55283;51.466;5.478;2022-08-14T14:54:12;4.93;;;3.40;;
68365;SDS011;55283;51.466;5.478;2022-08-14T14:56:40;5.03;;;3.40;;
68365;SDS011;55283;51.466;5.478;2022-08-14T14:59:06;3.50;;;3.20;;
68365;SDS011;55283;51.466;5.478;2022-08-14T15:01:35;3.40;;;3.00;;
68365;SDS011;55283;51.466;5.478;2022-08-14T15:04:01;3.30;;;3.00;;
68365;SDS011;55283;51.466;5.478;2022-08-14T15:06:31;4.22;;;3.13;;
68365;SDS011;55283;51.466;5.478;2022-08-14T15:08:57;5.03;;;3.27;;
68365;SDS011;55283;51.466;5.478;2022-08-14T15:11:23;3.42;;;3.13;;
68365;SDS011;55283;51.466;5.478;2022-08-14T15:13:50;3.78;;;3.38;;
68365;SDS011;55283;51.466;5.478;2022-08-14T15:16:16;5.63;;;3.30;;
68365;SDS011;55283;51.466;5.478;2022-08-14T15:18:41;3.47;;;3.03;;
68365;SDS011;55283;51.466;5.478;2022-08-14T15:21:09;3.57;;;3.27;;
68365;SDS011;55283;51.466;5.478;2022-08-14T15:23:38;9.60;;;3.35;;
68365;SDS011;55283;51.466;5.478;2022-08-14T15:26:07;12.73;;;3.50;;
68365;SDS011;55283;51.466;5.478;2022-08-14T15:28:33;5.43;;;3.13;;
68365;SDS011;55283;51.466;5.478;2022-08-14T15:31:03;5.00;;;3.10;;
68365;SDS011;55283;51.466;5.478;2022-08-14T15:33:29;5.28;;;2.97;;
68365;SDS011;55283;51.466;5.478;2022-08-14T15:36:14;3.70;;;3.30;;
68365;SDS011;55283;51.466;5.478;2022-08-14T15:38:41;6.22;;;3.17;;
68365;SDS011;55283;51.466;5.478;2022-08-14T15:41:06;3.80;;;3.10;;